Appling, Georgia
Current Conditions -  °F | °C
As of 10:55 PM on Wednesday 17 Dec 2014 (Local Time) from KHQU Reporting Station
Clear Clear  
Wind Chill: 42°   Ceiling: Unl
Heat Index: 42°   Visibility: 10mi
Dew Point: 40°   Wind: 3mph
Humidity: 94%   Direction: 260°W
Pressure: 30.17"   Gusts: NA
Location:  33.55°N, 82.32°W
Report Text: KHQU 180355Z AUTO 26003KT 10SM CLR 06/05 A3017 RMK AO1 T00560047
Loading
Personal Weather Stations






























Interactive Weather Map New forecast layout! Learn more

10-Day Weather Forecast

Advertisements
Track Severe Weather on mobile